Agraha Dasarahalli, India

12:54 PM IST on October 20, 2019 (GMT +0530)
Weavers Layout Attiguppe | | Change Station

Elev 3010 ft 12.96 °N, 77.53 °E | Updated 19 seconds ago

Mostly Cloudy
Mostly Cloudy
81.9 °F
Feels Like 85 °F
N
3.7
Wind Variable Wind from ENE
Gusts 0.0 mph

Today
High -- | Low -- °F
--% Chance of Precip.
Yesterday
High -- | Low -- °F
Precip. -- in
Pressure 30.01 in
Visibility 3.7 miles
Clouds Scattered Clouds 1200 ft
Scattered Clouds 1800 ft
Heat Index 85 °F
Dew Point 68 °F
Humidity 64%
Rainfall 0.00 in
Snow Depth Not available.
6:10 AM 5:58 PM
Waning Gibbous, 63% visible
METAR VOBL 200700Z 10007KT 070V140 6000 SCT012 SCT018 26/21 Q1016 NOSIG
Pressure 30.01 in
Visibility 3.7 miles
Clouds Scattered Clouds 1200 ft
Scattered Clouds 1800 ft
Heat Index 85 °F
Dew Point 68 °F
Humidity 64%
Rainfall 0.00 in
Snow Depth Not available.
6:10 AM 5:58 PM
Waning Gibbous, 63% visible
METAR VOBL 200700Z 10007KT 070V140 6000 SCT012 SCT018 26/21 Q1016 NOSIG

Get Severe Weather Alerts

Thanks for signing up!

Be on the lookout for a verification email in your inbox.

You'll start receiving the daily forecast at 6 AM.

×

10-Day Weather Forecast

No radar image for this location.
×

Almanac

Astronomy

Oct. 20, 2019 Rise Set
Actual Time
Civil Twilight
Nautical Twilight
Astronomical Twilight
Moon
Length of Visible Light
Length of Day
Tomorrow will be .
, % of the Moon is Illuminated

Today's Extremes

Country Highs Country Lows

Community

WunderPhotos

Category 6

Welcome to Category 6. This is the collective home for Weather Underground's featured writeups by Dr. Jeff Masters (right), Bob Henson (left), Chris Burt, and other regular contributors.

Nearby

Air Quality

  Air Quality AQ Index Pollutant
Not available.

Snow Depth

Station Depth Elevation

Earthquake Activity

City Distance Mag. Time & Date
Minimum magnitude displayed is 2.5.

Coastal Water Temperatures

Place Temperature

Stations

Nearby Weather Stations

Station Location Temp. Windchill Dew Point Humidity Wind Precip. Elev Updated Type